createdAt,value
2017-03-09T00:00:14.947Z,1002.07
2017-03-09T00:00:36.641Z,1002.01
2017-03-09T00:00:58.371Z,1002.08
2017-03-09T00:01:51.398Z,1001.99
2017-03-09T00:02:44.456Z,1002.09
2017-03-09T00:03:10.954Z,1002.15
2017-03-09T00:03:32.628Z,1002.17
2017-03-09T00:03:54.363Z,1002.12
2017-03-09T00:04:16.190Z,1002.02
2017-03-09T00:04:37.878Z,1001.98
2017-03-09T00:05:04.442Z,1002.06
2017-03-09T00:06:34.028Z,1002.04
2017-03-09T00:06:55.708Z,1002.09
2017-03-09T00:07:17.413Z,1001.91
2017-03-09T00:08:10.448Z,1002.04
2017-03-09T00:08:32.149Z,1002.03
2017-03-09T00:08:53.901Z,1002.12
2017-03-09T00:09:15.697Z,1002.06
2017-03-09T00:09:37.410Z,1002.04
2017-03-09T00:10:03.912Z,1002.01
2017-03-09T00:10:25.691Z,1001.99
2017-03-09T00:10:47.505Z,1002.04
2017-03-09T00:11:16.773Z,1002.13
2017-03-09T00:11:43.167Z,1002.07
2017-03-09T00:12:04.968Z,1002.04
2017-03-09T00:12:26.691Z,1002.08
2017-03-09T00:13:19.711Z,1002.18
2017-03-09T00:14:22.244Z,1002.12
2017-03-09T00:14:48.840Z,1002.18
2017-03-09T00:15:10.503Z,1002.18
2017-03-09T00:15:32.222Z,1002.16
2017-03-09T00:16:30.732Z,1002.24
2017-03-09T00:16:52.454Z,1002.17
2017-03-09T00:17:55.741Z,1002.20
2017-03-09T00:18:17.457Z,1002.23
2017-03-09T00:18:39.161Z,1002.22
2017-03-09T00:19:05.782Z,1002.12
2017-03-09T00:19:27.419Z,1002.17
2017-03-09T00:19:49.148Z,1002.22
2017-03-09T00:20:42.169Z,1002.19
2017-03-09T00:21:03.877Z,1002.16
2017-03-09T00:21:25.583Z,1002.05
2017-03-09T00:21:47.378Z,1002.12
2017-03-09T00:22:13.883Z,1002.16
2017-03-09T00:22:35.555Z,1002.17
2017-03-09T00:23:02.180Z,1002.18
2017-03-09T00:23:23.816Z,1002.12
2017-03-09T00:24:26.952Z,1002.14
2017-03-09T00:24:48.761Z,1002.15
2017-03-09T00:25:10.456Z,1002.22
2017-03-09T00:25:32.156Z,1002.11
2017-03-09T00:25:53.955Z,1002.21
2017-03-09T00:26:52.315Z,1002.13
2017-03-09T00:27:14.115Z,1002.20
2017-03-09T00:27:35.810Z,1002.17
2017-03-09T00:28:02.293Z,1002.15
2017-03-09T00:28:24.104Z,1002.18
2017-03-09T00:28:45.796Z,1002.04
2017-03-09T00:29:12.280Z,1002.24
2017-03-09T00:29:34.011Z,1002.18
2017-03-09T00:30:32.509Z,1002.22
2017-03-09T00:30:54.296Z,1002.10
2017-03-09T00:31:20.773Z,1002.23
2017-03-09T00:31:42.553Z,1002.15
2017-03-09T00:32:09.305Z,1002.22
2017-03-09T00:32:30.940Z,1002.26
2017-03-09T00:32:57.437Z,1002.33
2017-03-09T00:33:19.214Z,1002.26
2017-03-09T00:33:45.836Z,1002.29
2017-03-09T00:34:12.370Z,1002.25
2017-03-09T00:34:34.107Z,1002.32
2017-03-09T00:35:34.471Z,1002.36
2017-03-09T00:35:56.216Z,1002.28
2017-03-09T00:36:17.939Z,1002.37
2017-03-09T00:36:44.447Z,1002.36
2017-03-09T00:37:06.199Z,1002.32
2017-03-09T00:38:09.269Z,1002.39
2017-03-09T00:38:31.000Z,1002.36
2017-03-09T00:38:52.732Z,1002.32
2017-03-09T00:39:19.235Z,1002.26
2017-03-09T00:39:41.038Z,1002.30
2017-03-09T00:40:07.550Z,1002.31
2017-03-09T00:40:29.280Z,1002.31
2017-03-09T00:40:55.794Z,1002.38
2017-03-09T00:41:17.560Z,1002.25
2017-03-09T00:41:44.072Z,1002.29
2017-03-09T00:42:05.896Z,1002.38
2017-03-09T00:42:32.404Z,1002.25
2017-03-09T00:43:39.696Z,1002.23
2017-03-09T00:44:01.494Z,1002.39
2017-03-09T00:45:02.736Z,1002.35
2017-03-09T00:46:10.598Z,1002.37
2017-03-09T00:46:32.388Z,1002.33
2017-03-09T00:47:30.764Z,1002.40
2017-03-09T00:47:52.500Z,1002.38
2017-03-09T00:48:14.259Z,1002.37
2017-03-09T00:48:40.793Z,1002.41
2017-03-09T00:49:02.592Z,1002.51
2017-03-09T00:49:24.422Z,1002.46
2017-03-09T00:50:27.544Z,1002.50
2017-03-09T00:50:49.294Z,1002.43
2017-03-09T00:51:42.317Z,1002.35
2017-03-09T00:52:35.317Z,1002.47
2017-03-09T00:53:28.337Z,1002.41
2017-03-09T00:54:21.446Z,1002.47
2017-03-09T00:55:19.841Z,1002.45
2017-03-09T00:55:41.563Z,1002.43
2017-03-09T00:56:34.799Z,1002.47
2017-03-09T00:57:01.269Z,1002.46
2017-03-09T00:57:22.992Z,1002.50
2017-03-09T00:57:44.747Z,1002.46
2017-03-09T00:58:06.483Z,1002.47
2017-03-09T00:58:28.192Z,1002.53
2017-03-09T00:58:49.918Z,1002.51
2017-03-09T00:59:11.614Z,1002.54
2017-03-09T00:59:33.336Z,1002.54
2017-03-09T00:59:55.077Z,1002.55
2017-03-09T01:00:16.786Z,1002.56
2017-03-09T01:00:38.608Z,1002.55
2017-03-09T01:01:00.312Z,1002.45
2017-03-09T01:01:22.035Z,1002.47
2017-03-09T01:01:48.528Z,1002.50
2017-03-09T01:02:10.241Z,1002.49
2017-03-09T01:02:36.739Z,1002.56
2017-03-09T01:02:58.513Z,1002.59
2017-03-09T01:03:51.486Z,1002.49
2017-03-09T01:04:44.516Z,1002.52
2017-03-09T01:05:37.520Z,1002.47
2017-03-09T01:06:30.472Z,1002.52
2017-03-09T01:07:23.489Z,1002.57
2017-03-09T01:08:16.502Z,1002.44
2017-03-09T01:09:09.504Z,1002.43
2017-03-09T01:10:02.497Z,1002.50
2017-03-09T01:10:29.010Z,1002.51
2017-03-09T01:10:50.783Z,1002.56
2017-03-09T01:11:17.290Z,1002.52
2017-03-09T01:11:39.010Z,1002.55
2017-03-09T01:12:05.504Z,1002.50
2017-03-09T01:12:27.216Z,1002.55
2017-03-09T01:12:48.952Z,1002.51
2017-03-09T01:13:56.255Z,1002.59
2017-03-09T01:14:49.217Z,1002.50
2017-03-09T01:15:10.976Z,1002.51
2017-03-09T01:15:32.744Z,1002.52
2017-03-09T01:15:54.638Z,1002.60
2017-03-09T01:16:16.350Z,1002.53
2017-03-09T01:16:38.101Z,1002.55
2017-03-09T01:16:59.860Z,1002.53
2017-03-09T01:17:21.578Z,1002.55
2017-03-09T01:17:43.340Z,1002.55
2017-03-09T01:18:46.432Z,1002.43
2017-03-09T01:19:08.265Z,1002.52
2017-03-09T01:19:30.037Z,1002.53
2017-03-09T01:19:56.528Z,1002.52
2017-03-09T01:20:18.294Z,1002.51
2017-03-09T01:20:44.793Z,1002.49
2017-03-09T01:21:06.538Z,1002.50
2017-03-09T01:21:33.064Z,1002.59
2017-03-09T01:21:54.818Z,1002.57
2017-03-09T01:22:16.599Z,1002.57
2017-03-09T01:23:14.922Z,1002.53
2017-03-09T01:23:36.658Z,1002.57
2017-03-09T01:23:58.375Z,1002.57
2017-03-09T01:24:20.101Z,1002.62
2017-03-09T01:24:41.832Z,1002.55
2017-03-09T01:25:03.577Z,1002.64
2017-03-09T01:25:25.315Z,1002.55
2017-03-09T01:25:47.142Z,1002.56
2017-03-09T01:26:08.877Z,1002.74
2017-03-09T01:26:30.600Z,1002.56
2017-03-09T01:26:52.348Z,1002.53
2017-03-09T01:27:14.102Z,1002.61
2017-03-09T01:27:35.845Z,1002.51
2017-03-09T01:27:57.591Z,1002.60
2017-03-09T01:28:19.326Z,1002.57
2017-03-09T01:28:41.073Z,1002.55
2017-03-09T01:29:02.841Z,1002.65
2017-03-09T01:29:24.558Z,1002.60
2017-03-09T01:29:46.256Z,1002.68
2017-03-09T01:30:07.953Z,1002.66
2017-03-09T01:30:29.684Z,1002.64
2017-03-09T01:30:51.429Z,1002.62
2017-03-09T01:31:13.184Z,1002.61
2017-03-09T01:31:34.944Z,1002.55
2017-03-09T01:32:27.944Z,1002.61
2017-03-09T01:33:20.927Z,1002.67
2017-03-09T01:33:42.697Z,1002.70
2017-03-09T01:34:09.222Z,1002.68
2017-03-09T01:34:30.966Z,1002.53
2017-03-09T01:35:24.012Z,1002.59
2017-03-09T01:35:45.779Z,1002.62
2017-03-09T01:36:48.939Z,1002.53
2017-03-09T01:37:10.680Z,1002.55
2017-03-09T01:38:17.992Z,1002.71
2017-03-09T01:38:39.736Z,1002.67
2017-03-09T01:39:47.022Z,1002.57
2017-03-09T01:40:08.752Z,1002.69
2017-03-09T01:41:11.304Z,1002.66
2017-03-09T01:41:33.100Z,1002.65
2017-03-09T01:41:54.838Z,1002.75
2017-03-09T01:42:16.599Z,1002.77
2017-03-09T01:42:38.322Z,1002.61
2017-03-09T01:43:00.062Z,1002.58
2017-03-09T01:43:21.794Z,1002.69
2017-03-09T01:43:43.528Z,1002.69
2017-03-09T01:44:05.269Z,1002.64
2017-03-09T01:44:27.008Z,1002.67
2017-03-09T01:44:48.903Z,1002.77
2017-03-09T01:45:10.719Z,1002.66
2017-03-09T01:45:32.462Z,1002.74
2017-03-09T01:45:54.293Z,1002.58
2017-03-09T01:46:16.005Z,1002.66
2017-03-09T01:46:42.495Z,1002.60
2017-03-09T01:47:04.304Z,1002.65
2017-03-09T01:47:30.803Z,1002.66
2017-03-09T01:47:52.542Z,1002.68
2017-03-09T01:48:45.621Z,1002.66
2017-03-09T01:49:12.142Z,1002.66
2017-03-09T01:49:33.843Z,1002.67
2017-03-09T01:49:55.655Z,1002.72
2017-03-09T01:50:22.137Z,1002.71
2017-03-09T01:50:43.842Z,1002.67
2017-03-09T01:51:36.900Z,1002.72
2017-03-09T01:52:03.386Z,1002.77
2017-03-09T01:52:25.095Z,1002.80
2017-03-09T01:52:51.579Z,1002.68
2017-03-09T01:53:13.384Z,1002.67
2017-03-09T01:53:39.872Z,1002.65
2017-03-09T01:54:01.602Z,1002.68
2017-03-09T01:54:28.085Z,1002.65
2017-03-09T01:54:49.881Z,1002.67
2017-03-09T01:55:16.372Z,1002.74
2017-03-09T01:56:18.885Z,1002.80
2017-03-09T01:57:21.893Z,1002.66
2017-03-09T01:57:43.701Z,1002.70
2017-03-09T01:58:36.734Z,1002.72
2017-03-09T01:59:29.709Z,1002.71
2017-03-09T02:00:22.751Z,1002.68
2017-03-09T02:01:56.620Z,1002.76
2017-03-09T02:02:23.106Z,1002.76
2017-03-09T02:02:44.822Z,1002.72
2017-03-09T02:03:11.296Z,1002.65
2017-03-09T02:03:33.096Z,1002.68
2017-03-09T02:04:31.542Z,1002.82
2017-03-09T02:04:53.241Z,1002.83
2017-03-09T02:05:19.721Z,1002.75
2017-03-09T02:05:41.503Z,1002.79
2017-03-09T02:06:34.460Z,1002.78
2017-03-09T02:07:27.502Z,1002.88
2017-03-09T02:07:49.210Z,1002.93
2017-03-09T02:08:51.808Z,1002.87
2017-03-09T02:09:13.512Z,1002.82
2017-03-09T02:09:35.221Z,1002.89
2017-03-09T02:09:56.917Z,1002.91
2017-03-09T02:10:18.706Z,1002.86
2017-03-09T02:11:25.994Z,1002.88
2017-03-09T02:11:48.807Z,1002.92
2017-03-09T02:12:10.536Z,1002.95
2017-03-09T02:13:03.591Z,1002.93
2017-03-09T02:13:25.304Z,1002.89
2017-03-09T02:14:23.696Z,1002.90
2017-03-09T02:14:45.392Z,1002.82
2017-03-09T02:15:52.674Z,1002.98
2017-03-09T02:16:14.467Z,1002.95
2017-03-09T02:17:17.551Z,1002.93
2017-03-09T02:17:39.332Z,1002.94
2017-03-09T02:18:01.032Z,1002.92
2017-03-09T02:18:22.770Z,1002.89
2017-03-09T02:18:44.550Z,1002.94
2017-03-09T02:19:51.829Z,1002.89
2017-03-09T02:20:13.640Z,1002.94
2017-03-09T02:21:16.709Z,1002.99
2017-03-09T02:21:38.518Z,1002.99
2017-03-09T02:22:00.230Z,1003.02
2017-03-09T02:22:26.707Z,1002.93
2017-03-09T02:22:48.424Z,1003.02
2017-03-09T02:23:10.211Z,1002.98
2017-03-09T02:24:03.194Z,1002.96
2017-03-09T02:24:25.020Z,1002.99
2017-03-09T02:25:17.982Z,1002.95
2017-03-09T02:26:21.173Z,1002.97
2017-03-09T02:26:42.877Z,1002.98
2017-03-09T02:27:04.579Z,1002.88
2017-03-09T02:27:26.419Z,1002.96
2017-03-09T02:27:48.123Z,1003.00
2017-03-09T02:28:14.613Z,1002.98
2017-03-09T02:28:36.418Z,1002.98
2017-03-09T02:28:58.121Z,1003.05
2017-03-09T02:30:31.879Z,1002.95
2017-03-09T02:30:53.598Z,1003.00
2017-03-09T02:31:15.416Z,1003.00
2017-03-09T02:31:37.112Z,1002.99
2017-03-09T02:32:03.591Z,1002.95
2017-03-09T02:32:25.294Z,1002.96
2017-03-09T02:32:51.788Z,1003.01
2017-03-09T02:33:13.578Z,1002.95
2017-03-09T02:34:20.861Z,1002.98
2017-03-09T02:34:42.684Z,1002.91
2017-03-09T02:35:35.727Z,1002.96
2017-03-09T02:35:57.435Z,1002.95
2017-03-09T02:36:19.155Z,1003.03
2017-03-09T02:36:40.854Z,1003.00
2017-03-09T02:37:02.655Z,1002.94
2017-03-09T02:38:05.746Z,1002.90
2017-03-09T02:38:27.544Z,1002.90
2017-03-09T02:38:49.253Z,1002.94
2017-03-09T02:39:10.956Z,1002.88
2017-03-09T02:39:32.656Z,1002.88
2017-03-09T02:39:59.133Z,1002.91
2017-03-09T02:40:20.914Z,1002.92
2017-03-09T02:40:47.404Z,1002.95
2017-03-09T02:41:09.116Z,1002.95
2017-03-09T02:41:30.914Z,1002.95
2017-03-09T02:42:34.031Z,1002.91
2017-03-09T02:42:55.861Z,1002.93
2017-03-09T02:43:48.804Z,1002.91
2017-03-09T02:44:41.859Z,1002.98
2017-03-09T02:45:34.910Z,1002.91
2017-03-09T02:46:27.855Z,1002.94
2017-03-09T02:47:20.888Z,1003.01
2017-03-09T02:47:42.630Z,1002.96
2017-03-09T02:48:09.105Z,1002.96
2017-03-09T02:48:30.923Z,1003.00
2017-03-09T02:49:34.018Z,1002.97
2017-03-09T02:49:55.827Z,1002.85
2017-03-09T02:50:22.314Z,1002.96
2017-03-09T02:50:44.015Z,1002.96
2017-03-09T02:51:05.818Z,1002.97
2017-03-09T02:51:58.785Z,1003.00
2017-03-09T02:52:51.840Z,1002.99
2017-03-09T02:53:44.883Z,1002.99
2017-03-09T02:54:06.592Z,1003.02
2017-03-09T02:54:33.056Z,1002.95
2017-03-09T02:54:54.779Z,1002.95
2017-03-09T02:55:16.575Z,1003.11
2017-03-09T02:55:43.055Z,1003.09
2017-03-09T02:56:04.767Z,1003.08
2017-03-09T02:56:31.506Z,1003.07
2017-03-09T02:56:53.124Z,1003.05
2017-03-09T02:57:14.869Z,1003.08
2017-03-09T02:58:07.902Z,1003.08
2017-03-09T02:58:29.682Z,1003.05
2017-03-09T02:59:22.680Z,1003.12
2017-03-09T02:59:44.401Z,1003.10
2017-03-09T03:00:15.698Z,1003.04
2017-03-09T03:00:37.426Z,1003.09
2017-03-09T03:00:59.180Z,1002.97
2017-03-09T03:01:20.987Z,1003.04
2017-03-09T03:01:42.723Z,1003.06
2017-03-09T03:02:04.472Z,1003.07
2017-03-09T03:02:26.201Z,1003.12
2017-03-09T03:02:47.930Z,1003.05
2017-03-09T03:03:09.733Z,1003.07
2017-03-09T03:03:31.454Z,1003.10
2017-03-09T03:03:53.269Z,1003.10
2017-03-09T03:04:15.026Z,1003.05
2017-03-09T03:04:36.738Z,1003.04
2017-03-09T03:04:58.499Z,1003.01
2017-03-09T03:05:20.251Z,1003.06
2017-03-09T03:05:41.987Z,1003.00
2017-03-09T03:06:03.725Z,1003.05
2017-03-09T03:06:25.578Z,1003.06
2017-03-09T03:07:18.578Z,1003.12
2017-03-09T03:08:52.584Z,1003.05
2017-03-09T03:09:14.306Z,1003.10
2017-03-09T03:09:36.068Z,1003.14
2017-03-09T03:09:57.801Z,1003.11
2017-03-09T03:10:19.490Z,1003.14
2017-03-09T03:10:41.188Z,1003.08
2017-03-09T03:11:02.889Z,1003.03
2017-03-09T03:11:24.609Z,1003.07
2017-03-09T03:12:27.721Z,1003.02
2017-03-09T03:12:49.498Z,1003.00
2017-03-09T03:13:52.025Z,1003.04
2017-03-09T03:14:13.758Z,1003.01
2017-03-09T03:15:21.076Z,1003.03
2017-03-09T03:15:42.806Z,1003.04
2017-03-09T03:16:50.123Z,1003.00
2017-03-09T03:17:11.861Z,1003.02
2017-03-09T03:18:14.944Z,1003.00
2017-03-09T03:18:36.679Z,1002.88
2017-03-09T03:19:29.683Z,1003.06
2017-03-09T03:19:56.198Z,1002.99
2017-03-09T03:20:17.932Z,1003.03
2017-03-09T03:20:39.666Z,1002.99
2017-03-09T03:21:06.163Z,1003.05
2017-03-09T03:21:27.877Z,1002.96
2017-03-09T03:21:54.356Z,1002.87
2017-03-09T03:22:16.107Z,1003.01
2017-03-09T03:23:09.099Z,1003.03
2017-03-09T03:23:30.833Z,1002.99
2017-03-09T03:23:52.607Z,1002.88
2017-03-09T03:24:14.338Z,1002.89
2017-03-09T03:24:36.096Z,1002.95
2017-03-09T03:24:57.818Z,1002.98
2017-03-09T03:25:19.525Z,1002.98
2017-03-09T03:25:41.291Z,1002.93
2017-03-09T03:26:03.062Z,1003.00
2017-03-09T03:26:24.815Z,1003.05
2017-03-09T03:26:46.540Z,1003.06
2017-03-09T03:27:08.263Z,1003.06
2017-03-09T03:27:30.003Z,1003.08
2017-03-09T03:27:56.491Z,1003.12
2017-03-09T03:28:21.011Z,1003.01
2017-03-09T03:28:42.757Z,1002.92
2017-03-09T03:29:04.468Z,1002.97
2017-03-09T03:29:26.166Z,1003.04
2017-03-09T03:29:47.862Z,1003.04
2017-03-09T03:30:09.569Z,1003.03
2017-03-09T03:30:31.263Z,1003.02
2017-03-09T03:31:24.361Z,1002.99
2017-03-09T03:31:47.120Z,1002.94
2017-03-09T03:32:08.906Z,1002.95
2017-03-09T03:32:30.664Z,1002.96
2017-03-09T03:32:52.433Z,1002.93
2017-03-09T03:33:15.177Z,1002.99
2017-03-09T03:33:36.908Z,1002.98
2017-03-09T03:34:03.426Z,1002.92
2017-03-09T03:34:25.182Z,1003.02
2017-03-09T03:35:18.204Z,1003.01
2017-03-09T03:36:21.314Z,1002.94
2017-03-09T03:36:43.052Z,1003.03
2017-03-09T03:37:50.355Z,1003.08
2017-03-09T03:38:12.159Z,1003.08
2017-03-09T03:39:14.700Z,1003.19
2017-03-09T03:39:36.416Z,1003.04
2017-03-09T03:39:58.119Z,1003.11
2017-03-09T03:40:19.824Z,1003.25
2017-03-09T03:40:41.560Z,1003.23
2017-03-09T03:41:04.297Z,1003.28
2017-03-09T03:41:30.813Z,1003.22
2017-03-09T03:42:23.812Z,1003.19
2017-03-09T03:42:45.570Z,1003.24
2017-03-09T03:43:38.695Z,1003.14
2017-03-09T03:44:31.726Z,1003.16
2017-03-09T03:45:24.723Z,1003.21
2017-03-09T03:46:17.767Z,1003.21
2017-03-09T03:47:10.765Z,1003.28
2017-03-09T03:48:03.750Z,1003.30
2017-03-09T03:48:56.758Z,1003.33
2017-03-09T03:49:18.531Z,1003.35
2017-03-09T03:50:21.095Z,1003.45
2017-03-09T03:50:47.614Z,1003.40
2017-03-09T03:51:14.244Z,1003.40
2017-03-09T03:51:35.977Z,1003.40
2017-03-09T03:51:57.746Z,1003.38
2017-03-09T03:52:22.297Z,1003.36
2017-03-09T03:52:44.039Z,1003.39
2017-03-09T03:53:05.789Z,1003.36
2017-03-09T03:53:27.487Z,1003.40
2017-03-09T03:53:49.228Z,1003.38
2017-03-09T03:54:10.952Z,1003.44
2017-03-09T03:54:32.671Z,1003.38
2017-03-09T03:54:59.183Z,1003.46
2017-03-09T03:55:20.916Z,1003.42
2017-03-09T03:55:42.679Z,1003.47
2017-03-09T03:56:45.787Z,1003.48
2017-03-09T03:57:07.536Z,1003.47
2017-03-09T03:58:10.633Z,1003.47
2017-03-09T03:58:32.560Z,1003.47
2017-03-09T03:58:59.066Z,1003.47
2017-03-09T03:59:20.828Z,1003.50
2017-03-09T03:59:42.563Z,1003.51
2017-03-09T04:00:35.594Z,1003.50
2017-03-09T04:00:57.369Z,1003.51
2017-03-09T04:01:50.417Z,1003.53
2017-03-09T04:02:12.134Z,1003.55
2017-03-09T04:02:36.414Z,1003.52
2017-03-09T04:02:58.170Z,1003.54
2017-03-09T04:03:56.507Z,1003.52
2017-03-09T04:04:18.233Z,1003.54
2017-03-09T04:04:39.957Z,1003.54
2017-03-09T04:05:01.696Z,1003.55
2017-03-09T04:06:04.208Z,1003.58
2017-03-09T04:06:25.903Z,1003.61
2017-03-09T04:06:47.596Z,1003.59
2017-03-09T04:07:09.292Z,1003.58
2017-03-09T04:07:30.986Z,1003.58
2017-03-09T04:07:52.690Z,1003.61
2017-03-09T04:08:14.414Z,1003.65
2017-03-09T04:08:36.317Z,1003.60
2017-03-09T04:08:58.029Z,1003.63
2017-03-09T04:09:19.798Z,1003.65
2017-03-09T04:09:41.593Z,1003.65
2017-03-09T04:10:03.349Z,1003.66
2017-03-09T04:10:25.299Z,1003.62
2017-03-09T04:10:47.222Z,1003.61
2017-03-09T04:11:08.982Z,1003.61
2017-03-09T04:11:30.820Z,1003.60
2017-03-09T04:11:52.582Z,1003.61
2017-03-09T04:12:14.422Z,1003.60
2017-03-09T04:12:36.474Z,1003.53
2017-03-09T04:12:58.216Z,1003.59
2017-03-09T04:13:20.016Z,1003.57
2017-03-09T04:13:41.760Z,1003.59
2017-03-09T04:14:03.602Z,1003.60
2017-03-09T04:14:25.359Z,1003.62
2017-03-09T04:14:47.385Z,1003.59
2017-03-09T04:15:09.144Z,1003.59
2017-03-09T04:15:31.009Z,1003.58
2017-03-09T04:15:52.800Z,1003.58
2017-03-09T04:16:14.766Z,1003.56
2017-03-09T04:17:20.977Z,1003.56
2017-03-09T04:17:43.003Z,1003.58
2017-03-09T04:18:04.992Z,1003.58
2017-03-09T04:18:27.077Z,1003.60
2017-03-09T04:18:48.819Z,1003.57
2017-03-09T04:19:10.732Z,1003.55
2017-03-09T04:19:32.491Z,1003.54
2017-03-09T04:19:54.511Z,1003.55
2017-03-09T04:20:16.635Z,1003.51
2017-03-09T04:20:38.602Z,1003.55
2017-03-09T04:21:00.313Z,1003.54
2017-03-09T04:21:22.402Z,1003.54
2017-03-09T04:21:44.237Z,1003.51
2017-03-09T04:22:06.121Z,1003.51
2017-03-09T04:22:27.876Z,1003.51
2017-03-09T04:22:49.574Z,1003.51
2017-03-09T04:23:11.814Z,1003.57
2017-03-09T04:23:33.622Z,1003.54
2017-03-09T04:23:55.548Z,1003.57
2017-03-09T04:24:22.177Z,1003.60
2017-03-09T04:24:53.995Z,1003.51
2017-03-09T04:25:15.959Z,1003.54
2017-03-09T04:25:37.664Z,1003.59
2017-03-09T04:25:59.481Z,1003.56
2017-03-09T04:26:21.228Z,1003.52
2017-03-09T04:26:43.043Z,1003.54
2017-03-09T04:27:04.996Z,1003.53
2017-03-09T04:27:26.948Z,1003.53
2017-03-09T04:27:48.688Z,1003.51
2017-03-09T04:28:10.443Z,1003.50
2017-03-09T04:29:08.946Z,1003.59
2017-03-09T04:29:30.851Z,1003.55
2017-03-09T04:29:52.557Z,1003.57
2017-03-09T04:30:14.256Z,1003.58
2017-03-09T04:30:35.956Z,1003.56
2017-03-09T04:31:00.645Z,1003.57
2017-03-09T04:31:22.578Z,1003.55
2017-03-09T04:31:44.484Z,1003.58
2017-03-09T04:32:06.812Z,1003.59
2017-03-09T04:32:28.788Z,1003.60
2017-03-09T04:32:50.593Z,1003.60
2017-03-09T04:33:12.673Z,1003.57
2017-03-09T04:33:34.649Z,1003.59
2017-03-09T04:33:56.543Z,1003.51
2017-03-09T04:34:18.441Z,1003.53
2017-03-09T04:34:40.327Z,1003.49
2017-03-09T04:35:02.320Z,1003.52
2017-03-09T04:35:24.060Z,1003.52
2017-03-09T04:35:46.310Z,1003.49
2017-03-09T04:36:08.272Z,1003.49
2017-03-09T04:36:30.126Z,1003.52
2017-03-09T04:36:51.990Z,1003.48
2017-03-09T04:37:14.432Z,1003.47
2017-03-09T04:37:36.521Z,1003.49
2017-03-09T04:37:58.298Z,1003.41
2017-03-09T04:38:20.047Z,1003.47
2017-03-09T04:38:41.961Z,1003.36
2017-03-09T04:39:03.718Z,1003.41
2017-03-09T04:39:25.852Z,1003.42
2017-03-09T04:39:47.844Z,1003.46
2017-03-09T04:40:09.620Z,1003.50
2017-03-09T04:40:31.545Z,1003.46
2017-03-09T04:40:53.292Z,1003.47
2017-03-09T04:41:15.101Z,1003.43
2017-03-09T04:41:36.883Z,1003.48
2017-03-09T04:41:58.609Z,1003.47
2017-03-09T04:42:20.553Z,1003.46
2017-03-09T04:42:42.294Z,1003.49
2017-03-09T04:43:04.044Z,1003.53
2017-03-09T04:43:25.878Z,1003.47
2017-03-09T04:43:47.651Z,1003.52
2017-03-09T04:44:09.776Z,1003.46
2017-03-09T04:44:32.412Z,1003.48
2017-03-09T04:44:54.124Z,1003.42
2017-03-09T04:45:15.936Z,1003.47
2017-03-09T04:45:37.978Z,1003.41
2017-03-09T04:45:59.974Z,1003.41
2017-03-09T04:46:21.645Z,1003.40
2017-03-09T04:46:43.369Z,1003.45
2017-03-09T04:47:05.136Z,1003.48
2017-03-09T04:47:27.182Z,1003.43
2017-03-09T04:47:48.932Z,1003.47
2017-03-09T04:48:10.757Z,1003.47
2017-03-09T04:48:32.760Z,1003.49
2017-03-09T04:48:54.605Z,1003.48
2017-03-09T04:49:16.649Z,1003.47
2017-03-09T04:49:38.672Z,1003.52
2017-03-09T04:50:00.441Z,1003.51
2017-03-09T04:50:22.424Z,1003.54
2017-03-09T04:50:44.381Z,1003.54
2017-03-09T04:51:06.489Z,1003.57
2017-03-09T04:51:28.227Z,1003.59
2017-03-09T04:51:50.176Z,1003.57
2017-03-09T04:52:12.141Z,1003.56
2017-03-09T04:52:34.118Z,1003.55
2017-03-09T04:52:55.888Z,1003.55
2017-03-09T04:53:17.606Z,1003.53
2017-03-09T04:53:39.434Z,1003.53
2017-03-09T04:54:01.125Z,1003.52
2017-03-09T04:54:22.886Z,1003.52
2017-03-09T04:54:44.742Z,1003.54
2017-03-09T04:55:06.718Z,1003.51
2017-03-09T04:55:28.419Z,1003.47
2017-03-09T04:55:50.581Z,1003.50
2017-03-09T04:56:12.337Z,1003.49
2017-03-09T04:56:35.210Z,1003.47
2017-03-09T04:56:56.951Z,1003.48
2017-03-09T04:57:18.636Z,1003.51
2017-03-09T04:57:40.488Z,1003.46
2017-03-09T04:58:02.425Z,1003.51
2017-03-09T04:58:24.226Z,1003.51
2017-03-09T04:58:46.801Z,1003.47
2017-03-09T04:59:08.723Z,1003.50
2017-03-09T04:59:30.592Z,1003.52
2017-03-09T04:59:52.489Z,1003.57
2017-03-09T05:00:14.572Z,1003.55
2017-03-09T05:00:36.384Z,1003.63
2017-03-09T05:00:58.179Z,1003.66
2017-03-09T05:01:20.046Z,1003.64
2017-03-09T05:01:42.097Z,1003.62
2017-03-09T05:02:03.809Z,1003.55
2017-03-09T05:02:25.751Z,1003.57
2017-03-09T05:02:48.700Z,1003.57
2017-03-09T05:03:10.406Z,1003.53
2017-03-09T05:03:32.275Z,1003.52
2017-03-09T05:03:54.055Z,1003.54
2017-03-09T05:04:15.980Z,1003.59
2017-03-09T05:04:37.747Z,1003.56
2017-03-09T05:04:59.438Z,1003.59
2017-03-09T05:05:21.140Z,1003.56
2017-03-09T05:05:42.903Z,1003.59
2017-03-09T05:06:04.669Z,1003.55
2017-03-09T05:06:26.593Z,1003.56
2017-03-09T05:06:48.430Z,1003.50
2017-03-09T05:07:10.139Z,1003.55
2017-03-09T05:07:31.869Z,1003.55
2017-03-09T05:07:53.884Z,1003.50
2017-03-09T05:08:15.689Z,1003.53
2017-03-09T05:08:37.549Z,1003.46
2017-03-09T05:09:30.732Z,1003.51
2017-03-09T05:09:52.443Z,1003.48
2017-03-09T05:10:14.217Z,1003.53
2017-03-09T05:10:36.012Z,1003.51
2017-03-09T05:10:57.782Z,1003.51
2017-03-09T05:11:19.604Z,1003.52
2017-03-09T05:11:41.374Z,1003.54
2017-03-09T05:12:03.286Z,1003.61
2017-03-09T05:12:25.033Z,1003.62
2017-03-09T05:12:46.996Z,1003.60
2017-03-09T05:13:08.835Z,1003.62
2017-03-09T05:13:30.602Z,1003.63
2017-03-09T05:13:52.295Z,1003.66
2017-03-09T05:14:14.796Z,1003.64
2017-03-09T05:14:36.621Z,1003.59
2017-03-09T05:14:58.947Z,1003.61
2017-03-09T05:15:20.758Z,1003.59
2017-03-09T05:15:42.637Z,1003.56
2017-03-09T05:16:04.444Z,1003.53
2017-03-09T05:16:26.526Z,1003.56
2017-03-09T05:16:48.480Z,1003.59
2017-03-09T05:17:10.213Z,1003.59
2017-03-09T05:18:12.806Z,1003.57
2017-03-09T05:18:34.572Z,1003.51
2017-03-09T05:19:01.078Z,1003.53
2017-03-09T05:19:28.105Z,1003.54
2017-03-09T05:21:02.003Z,1003.54
2017-03-09T05:21:23.713Z,1003.60
2017-03-09T05:21:45.440Z,1003.57
2017-03-09T05:22:07.199Z,1003.53
2017-03-09T05:22:28.908Z,1003.50
2017-03-09T05:22:50.637Z,1003.48
2017-03-09T05:23:12.364Z,1003.55
2017-03-09T05:23:34.140Z,1003.50
2017-03-09T05:23:56.039Z,1003.51
2017-03-09T05:24:49.110Z,1003.53
2017-03-09T05:25:42.115Z,1003.50
2017-03-09T05:26:35.097Z,1003.57
2017-03-09T05:27:28.112Z,1003.52
2017-03-09T05:28:21.142Z,1003.46
2017-03-09T05:29:24.323Z,1003.41
2017-03-09T05:30:58.118Z,1003.44
2017-03-09T05:31:51.116Z,1003.45
2017-03-09T05:32:17.617Z,1003.41
2017-03-09T05:33:57.424Z,1003.40
2017-03-09T05:34:20.237Z,1003.39
2017-03-09T05:35:23.369Z,1003.41
2017-03-09T05:35:45.092Z,1003.33
2017-03-09T05:36:06.854Z,1003.38
2017-03-09T05:36:59.900Z,1003.34
2017-03-09T05:37:21.659Z,1003.37
2017-03-09T05:37:43.382Z,1003.37
2017-03-09T05:38:05.183Z,1003.36
2017-03-09T05:38:27.201Z,1003.32
2017-03-09T05:38:48.911Z,1003.33
2017-03-09T05:39:10.645Z,1003.29
2017-03-09T05:39:32.390Z,1003.28
2017-03-09T05:39:54.140Z,1003.26
2017-03-09T05:40:15.873Z,1003.28
2017-03-09T05:40:37.635Z,1003.25
2017-03-09T05:40:59.369Z,1003.25
2017-03-09T05:41:21.083Z,1003.27
2017-03-09T05:41:42.842Z,1003.21
2017-03-09T05:42:04.589Z,1003.21
2017-03-09T05:42:26.345Z,1003.18
2017-03-09T05:42:48.090Z,1003.16
2017-03-09T05:43:09.835Z,1003.12
2017-03-09T05:43:31.625Z,1003.13
2017-03-09T05:43:53.347Z,1003.11
2017-03-09T05:44:15.127Z,1003.14
2017-03-09T05:44:36.848Z,1003.11
2017-03-09T05:44:58.569Z,1003.09
2017-03-09T05:45:20.367Z,1003.09
2017-03-09T05:45:42.096Z,1003.12
2017-03-09T05:46:03.922Z,1003.10
2017-03-09T05:46:25.639Z,1003.09
2017-03-09T05:46:47.369Z,1003.10
2017-03-09T05:47:09.128Z,1003.11
2017-03-09T05:47:30.988Z,1003.14
2017-03-09T05:47:52.726Z,1003.16
2017-03-09T05:48:14.540Z,1003.21
2017-03-09T05:48:36.358Z,1003.15
2017-03-09T05:48:58.083Z,1003.17
2017-03-09T05:49:19.812Z,1003.21
2017-03-09T05:49:41.591Z,1003.16